Time;durP1;ratioP1;P1;durP2;ratioP2;P2;SDS_P1;SDS_P2;PMS_P1;PMS_P2;Temp;Humidity;BMP_temperature;BMP_pressure;BME280_temperature;BME280_humidity;BME280_pressure;Samples;Min_cycle;Max_cycle;Signal;HPM_P1;HPM_P2
2022/11/28 00:01:49;;;;;;;;;;;;;;;6.18;78.08;102007.53;5045229;28;19929;-62
2022/11/28 00:04:14;;;;;;;;;;;;;;;6.19;78.25;102014.47;5044069;28;19924;-59
2022/11/28 00:06:48;;;;;;;;;;;;;;;6.22;78.18;102009.19;5051421;28;20311;-57
2022/11/28 00:09:15;;;;;;;;;;;;;;;6.21;77.96;102003.09;5044930;28;19921;-59
2022/11/28 00:11:41;;;;;;;;;;;;;;;6.20;78.05;102003.13;5049598;28;19970;-57
2022/11/28 00:14:06;;;;;;;;;;;;;;;6.19;78.23;101999.66;5051709;28;19917;-60
2022/11/28 00:16:32;;;;;;;;;;;;;;;6.17;78.22;101995.34;5051754;28;20015;-60
2022/11/28 00:18:58;;;;;;;;;;;;;;;6.18;78.24;101997.06;5046531;28;20464;-57
2022/11/28 00:21:23;;;;;;;;;;;;;;;6.18;77.96;101992.72;5051144;28;20395;-58
2022/11/28 00:23:49;;;;;;;;;;;;;;;6.21;77.96;101999.63;5049908;28;20384;-58
2022/11/28 00:26:18;;;;;;;;;;;;;;;6.22;78.02;101996.13;5045819;28;20019;-60
2022/11/28 00:28:44;;;;;;;;;;;;;;;6.24;78.07;101995.19;5052716;28;19928;-61
2022/11/28 00:31:20;;;;;;;;;;;;;;;6.23;77.98;101990.00;5047934;28;19951;-58
2022/11/28 00:33:45;;;;;;;;;;;;;;;6.26;78.15;101997.78;5046391;28;19929;-57
2022/11/28 00:36:11;;;;;;;;;;;;;;;6.25;78.19;101988.22;5052779;28;19920;-62
2022/11/28 00:38:37;;;;;;;;;;;;;;;6.28;77.86;101992.53;5049207;28;19925;-60
2022/11/28 00:41:06;;;;;;;;;;;;;;;6.29;77.99;101995.09;5052124;28;19924;-61
2022/11/28 00:43:32;;;;;;;;;;;;;;;6.29;77.90;101989.88;5030912;28;20017;-59
2022/11/28 00:45:57;;;;;;;;;;;;;;;6.30;77.87;101980.28;5050500;28;19944;-59
2022/11/28 00:48:23;;;;;;;;;;;;;;;6.29;78.00;101989.88;5049017;28;19920;-62
2022/11/28 00:50:48;;;;;;;;;;;;;;;6.32;77.77;101984.59;5050477;28;19931;-59
2022/11/28 00:53:14;;;;;;;;;;;;;;;6.35;77.90;101991.53;5046936;28;20376;-59
2022/11/28 00:55:39;;;;;;;;;;;;;;;6.38;77.76;101988.81;5050456;28;20402;-61
2022/11/28 00:58:04;;;;;;;;;;;;;;;6.39;77.66;101990.56;5049690;28;20379;-60
2022/11/28 01:00:30;;;;;;;;;;;;;;;6.38;77.64;101984.47;5050857;28;19920;-61
2022/11/28 01:02:55;;;;;;;;;;;;;;;6.39;77.74;101978.34;5048152;28;19917;-63
2022/11/28 01:05:21;;;;;;;;;;;;;;;6.42;77.44;101984.41;5051567;28;19920;-62
2022/11/28 01:07:46;;;;;;;;;;;;;;;6.44;77.36;101982.59;5045856;28;19924;-61
2022/11/28 01:10:11;;;;;;;;;;;;;;;6.41;77.42;101983.53;5046445;28;19933;-60
2022/11/28 01:12:37;;;;;;;;;;;;;;;6.40;77.44;101981.81;5050042;28;19928;-64
2022/11/28 01:15:03;;;;;;;;;;;;;;;6.43;77.54;101975.69;5046940;28;20035;-61
2022/11/28 01:17:28;;;;;;;;;;;;;;;6.40;77.67;101972.22;5043022;28;19928;-62
2022/11/28 01:19:54;;;;;;;;;;;;;;;6.42;77.59;101963.50;5050188;28;19925;-59
2022/11/28 01:22:19;;;;;;;;;;;;;;;6.40;77.50;101969.63;5037558;28;20008;-62
2022/11/28 01:24:44;;;;;;;;;;;;;;;6.39;77.20;101967.91;5044809;28;20028;-60
2022/11/28 01:27:10;;;;;;;;;;;;;;;6.43;77.32;101962.63;5048690;28;19952;-62
2022/11/28 01:29:35;;;;;;;;;;;;;;;6.42;77.31;101966.13;5048156;28;20342;-60
2022/11/28 01:32:01;;;;;;;;;;;;;;;6.46;77.19;101958.16;5049683;28;19921;-63
2022/11/28 01:34:26;;;;;;;;;;;;;;;6.46;76.94;101952.94;5046185;28;19921;-62
2022/11/28 01:36:51;;;;;;;;;;;;;;;6.50;76.90;101945.88;5051549;28;19923;-60
2022/11/28 01:39:16;;;;;;;;;;;;;;;6.51;76.69;101942.38;5046768;28;20388;-61
2022/11/28 01:41:42;;;;;;;;;;;;;;;6.51;76.91;101937.16;5048095;28;19921;-61
2022/11/28 01:44:27;;;;;;;;;;;;;;;6.47;76.50;101935.47;5043238;28;19933;-61
2022/11/28 01:46:53;;;;;;;;;;;;;;;6.44;76.79;101928.56;5042291;28;20328;-60
2022/11/28 01:49:18;;;;;;;;;;;;;;;6.42;76.67;101929.50;5054945;28;19924;-62
2022/11/28 01:51:46;;;;;;;;;;;;;;;6.43;76.89;101921.63;5044567;28;20934;-61
2022/11/28 01:54:13;;;;;;;;;;;;;;;6.43;76.91;101919.00;5049939;28;19924;-59
2022/11/28 01:56:51;;;;;;;;;;;;;;;6.42;76.56;101912.06;5053242;28;20436;-62
2022/11/28 01:59:17;;;;;;;;;;;;;;;6.44;76.68;101918.13;5047229;28;19921;-60
2022/11/28 02:01:44;;;;;;;;;;;;;;;6.45;76.61;101916.34;5050529;28;19912;-60
2022/11/28 02:04:09;;;;;;;;;;;;;;;6.43;76.41;101908.56;5044571;28;20380;-61
2022/11/28 02:06:35;;;;;;;;;;;;;;;6.43;76.45;101908.56;5045648;28;19927;-60
2022/11/28 02:09:00;;;;;;;;;;;;;;;6.40;76.20;101903.38;5047800;28;20038;-60
2022/11/28 02:11:37;;;;;;;;;;;;;;;6.39;76.19;101902.53;5043989;28;19917;-63
2022/11/28 02:14:14;;;;;;;;;;;;;;;6.43;76.10;101902.47;5045041;28;19917;-60
2022/11/28 02:16:51;;;;;;;;;;;;;;;6.37;75.94;101901.69;5048295;28;20348;-60
2022/11/28 02:19:32;;;;;;;;;;;;;;;6.38;76.09;101905.16;5039715;28;19924;-60
2022/11/28 02:22:09;;;;;;;;;;;;;;;6.36;76.23;101897.38;5049682;28;19917;-60
2022/11/28 02:24:34;;;;;;;;;;;;;;;6.34;76.29;101887.84;5041548;28;19981;-59
2022/11/28 02:26:59;;;;;;;;;;;;;;;6.33;76.25;101886.97;5049611;28;19962;-62
2022/11/28 02:29:27;;;;;;;;;;;;;;;6.35;76.60;101885.19;5049819;28;19948;-62
2022/11/28 02:32:11;;;;;;;;;;;;;;;6.39;76.40;101889.47;5048540;28;20295;-63
2022/11/28 02:34:55;;;;;;;;;;;;;;;6.42;76.22;101892.91;5043227;28;19967;-60
2022/11/28 02:37:33;;;;;;;;;;;;;;;6.43;76.25;101886.78;5047656;28;20593;-63
2022/11/28 02:40:07;;;;;;;;;;;;;;;6.44;76.15;101888.47;5052344;28;19920;-60
2022/11/28 02:42:35;;;;;;;;;;;;;;;6.36;75.97;101881.69;5057706;28;19913;-60
2022/11/28 02:45:08;;;;;;;;;;;;;;;6.34;76.39;101880.84;5038966;28;19939;-61
2022/11/28 02:47:38;;;;;;;;;;;;;;;6.30;76.16;101880.94;5047028;28;19924;-60
2022/11/28 02:50:06;;;;;;;;;;;;;;;6.25;76.02;101876.69;5051577;28;20512;-60
2022/11/28 02:52:38;;;;;;;;;;;;;;;6.27;75.88;101883.63;5049139;28;19921;-63
2022/11/28 02:55:04;;;;;;;;;;;;;;;6.21;75.50;101867.16;5054142;28;19913;-62
2022/11/28 02:57:36;;;;;;;;;;;;;;;6.21;75.62;101868.94;5052427;28;20020;-61
2022/11/28 03:00:21;;;;;;;;;;;;;;;6.18;75.51;101871.59;5053292;28;19917;-62
2022/11/28 03:02:48;;;;;;;;;;;;;;;6.13;75.47;101869.09;5049641;28;19932;-62
2022/11/28 03:05:22;;;;;;;;;;;;;;;6.07;75.34;101869.22;5050214;28;19925;-60
2022/11/28 03:08:04;;;;;;;;;;;;;;;6.02;75.42;101871.94;5046491;28;20323;-60
2022/11/28 03:10:49;;;;;;;;;;;;;;;6.00;75.20;101867.63;5044532;28;19928;-62
2022/11/28 03:13:33;;;;;;;;;;;;;;;5.95;74.97;101860.72;5045185;28;19963;-63
2022/11/28 03:16:10;;;;;;;;;;;;;;;5.93;75.18;101857.25;5049650;28;19969;-62
2022/11/28 03:18:43;;;;;;;;;;;;;;;5.88;75.11;101853.91;5044852;28;19978;-63
2022/11/28 03:21:27;;;;;;;;;;;;;;;5.84;75.40;101856.59;5049399;28;19917;-62
2022/11/28 03:23:56;;;;;;;;;;;;;;;5.78;75.31;101861.06;5042717;28;19924;-62
2022/11/28 03:26:40;;;;;;;;;;;;;;;5.73;75.39;101854.22;5045655;28;19986;-62
2022/11/28 03:29:11;;;;;;;;;;;;;;;5.68;75.18;101850.81;5048754;28;20276;-62
2022/11/28 03:31:41;;;;;;;;;;;;;;;5.66;75.50;101858.69;5044804;28;19939;-62
2022/11/28 03:34:09;;;;;;;;;;;;;;;5.65;75.43;101856.97;5055303;28;19916;-63
2022/11/28 03:36:37;;;;;;;;;;;;;;;5.67;75.52;101849.97;5051440;28;19929;-61
2022/11/28 03:39:10;;;;;;;;;;;;;;;5.60;75.13;101848.34;5045467;28;19925;-62
2022/11/28 03:41:41;;;;;;;;;;;;;;;5.55;75.22;101850.19;5044724;28;19917;-60
2022/11/28 03:44:10;;;;;;;;;;;;;;;5.52;75.26;101839.81;5051389;28;19940;-62
2022/11/28 03:46:37;;;;;;;;;;;;;;;5.45;75.74;101839.94;5046246;28;20546;-60
2022/11/28 03:49:04;;;;;;;;;;;;;;;5.48;75.57;101847.72;5056570;28;19979;-61
2022/11/28 03:51:35;;;;;;;;;;;;;;;5.47;75.59;101847.72;5050238;28;19924;-63
2022/11/28 03:54:03;;;;;;;;;;;;;;;5.48;75.32;101845.09;5050083;28;19917;-62
2022/11/28 03:56:51;;;;;;;;;;;;;;;5.44;75.30;101837.34;5046972;28;20363;-60
2022/11/28 03:59:24;;;;;;;;;;;;;;;5.42;75.46;101837.38;5052009;28;20407;-61
2022/11/28 04:02:00;;;;;;;;;;;;;;;5.43;75.40;101833.88;5049796;28;19924;-63
2022/11/28 04:04:44;;;;;;;;;;;;;;;5.41;75.29;101840.88;5050085;28;19924;-60
2022/11/28 04:07:28;;;;;;;;;;;;;;;5.40;75.22;101831.31;5050062;28;19924;-60
2022/11/28 04:09:59;;;;;;;;;;;;;;;5.39;75.55;101834.81;5028214;28;19924;-61
2022/11/28 04:12:30;;;;;;;;;;;;;;;5.40;75.54;101831.31;5047181;28;19940;-60
2022/11/28 04:15:16;;;;;;;;;;;;;;;5.40;75.44;101823.47;5047428;28;19923;-62
2022/11/28 04:17:54;;;;;;;;;;;;;;;5.42;75.30;101821.69;5049372;28;19917;-59
2022/11/28 04:20:25;;;;;;;;;;;;;;;5.42;75.21;101813.88;5055817;28;20347;-63
2022/11/28 04:22:53;;;;;;;;;;;;;;;5.41;75.23;101822.59;5050706;28;19924;-63
2022/11/28 04:25:20;;;;;;;;;;;;;;;5.38;75.39;101814.81;5058614;28;19958;-60
2022/11/28 04:27:53;;;;;;;;;;;;;;;5.38;75.44;101817.41;5051666;28;20016;-60
2022/11/28 04:30:18;;;;;;;;;;;;;;;5.39;75.26;101813.91;5052325;28;19960;-62
2022/11/28 04:32:49;;;;;;;;;;;;;;;5.38;75.43;101816.56;5049760;28;19962;-60
2022/11/28 04:35:19;;;;;;;;;;;;;;;5.35;75.20;101807.06;5048050;28;19917;-59
2022/11/28 04:37:47;;;;;;;;;;;;;;;5.34;75.55;101815.78;5053800;28;19959;-60
2022/11/28 04:40:13;;;;;;;;;;;;;;;5.34;75.32;101815.78;5052399;28;20359;-60
2022/11/28 04:42:42;;;;;;;;;;;;;;;5.31;75.14;101810.59;5047912;28;19952;-61
2022/11/28 04:45:13;;;;;;;;;;;;;;;5.33;75.50;101816.66;5045499;28;19960;-62
2022/11/28 04:47:38;;;;;;;;;;;;;;;5.29;75.21;101812.38;5048300;28;19924;-62
2022/11/28 04:50:04;;;;;;;;;;;;;;;5.29;75.16;101809.78;5047091;28;19921;-60
2022/11/28 04:52:34;;;;;;;;;;;;;;;5.25;75.19;101814.19;5032732;28;19924;-62
2022/11/28 04:55:09;;;;;;;;;;;;;;;5.25;75.33;101808.09;5048011;28;19970;-60
2022/11/28 04:57:39;;;;;;;;;;;;;;;5.24;75.15;101812.47;5046502;28;19925;-63
2022/11/28 05:00:12;;;;;;;;;;;;;;;5.19;75.27;101806.47;5055998;28;19925;-62
2022/11/28 05:02:39;;;;;;;;;;;;;;;5.16;75.64;101802.19;5044629;28;19916;-63
2022/11/28 05:05:13;;;;;;;;;;;;;;;5.15;75.54;101810.00;5028159;28;19956;-60
2022/11/28 05:07:38;;;;;;;;;;;;;;;5.12;75.70;101810.09;5026906;28;20740;-61
2022/11/28 05:10:04;;;;;;;;;;;;;;;5.08;75.54;101804.03;5049225;28;19928;-61
2022/11/28 05:12:30;;;;;;;;;;;;;;;5.06;75.52;101803.22;5052497;28;19964;-60
2022/11/28 05:14:55;;;;;;;;;;;;;;;5.05;75.57;101798.91;5048104;28;19966;-61
2022/11/28 05:17:20;;;;;;;;;;;;;;;5.01;75.93;101797.22;5044084;28;20314;-57
2022/11/28 05:19:46;;;;;;;;;;;;;;;5.00;75.62;101790.28;5050742;28;19925;-57
2022/11/28 05:22:11;;;;;;;;;;;;;;;5.00;75.85;101787.69;5033020;28;20023;-60
2022/11/28 05:24:36;;;;;;;;;;;;;;;5.00;75.81;101790.28;5047208;28;20431;-57
2022/11/28 05:27:02;;;;;;;;;;;;;;;4.97;76.03;101785.13;5048659;28;19928;-58
2022/11/28 05:29:29;;;;;;;;;;;;;;;4.96;76.17;101783.41;5038022;28;19929;-60
2022/11/28 05:31:55;;;;;;;;;;;;;;;4.97;76.11;101790.34;5043690;28;20462;-58
2022/11/28 05:34:21;;;;;;;;;;;;;;;4.98;75.92;101786.84;5012611;28;20351;-57
2022/11/28 05:36:46;;;;;;;;;;;;;;;5.00;75.90;101785.06;5045970;28;20047;-61
2022/11/28 05:39:11;;;;;;;;;;;;;;;5.01;75.88;101781.56;5037913;28;19920;-60
2022/11/28 05:41:36;;;;;;;;;;;;;;;5.02;75.97;101783.31;5047656;28;20383;-61
2022/11/28 05:44:02;;;;;;;;;;;;;;;4.99;76.13;101785.97;5029820;28;19925;-64
2022/11/28 05:46:28;;;;;;;;;;;;;;;4.97;76.08;101787.72;5046419;28;19927;-58
2022/11/28 05:48:54;;;;;;;;;;;;;;;4.99;75.85;101793.78;5036000;28;19921;-61
2022/11/28 05:51:19;;;;;;;;;;;;;;;4.98;75.92;101792.06;5045908;28;19964;-58
2022/11/28 05:53:44;;;;;;;;;;;;;;;4.96;76.09;101789.50;5051394;28;19970;-60
2022/11/28 05:56:14;;;;;;;;;;;;;;;4.96;75.96;101789.50;5040665;28;19967;-60
2022/11/28 05:58:40;;;;;;;;;;;;;;;4.96;75.77;101781.66;5047916;28;19925;-63
2022/11/28 06:01:09;;;;;;;;;;;;;;;4.95;76.22;101786.88;5039706;28;19928;-63
2022/11/28 06:03:34;;;;;;;;;;;;;;;4.92;75.82;101785.19;5043128;28;19921;-62
2022/11/28 06:06:00;;;;;;;;;;;;;;;4.89;75.84;101785.25;5045251;28;19924;-61
2022/11/28 06:08:25;;;;;;;;;;;;;;;4.90;76.22;101778.31;5047228;28;19968;-63
2022/11/28 06:10:57;;;;;;;;;;;;;;;4.91;75.97;101780.88;5057925;28;20008;-58
2022/11/28 06:13:23;;;;;;;;;;;;;;;4.92;76.08;101781.72;5053265;28;19921;-60
2022/11/28 06:15:48;;;;;;;;;;;;;;;4.95;76.62;101790.38;5017846;28;20368;-60
2022/11/28 06:18:13;;;;;;;;;;;;;;;4.99;76.64;101785.97;5033841;28;19917;-60
2022/11/28 06:20:38;;;;;;;;;;;;;;;5.01;76.63;101785.03;5050092;28;19925;-60
2022/11/28 06:23:04;;;;;;;;;;;;;;;5.04;76.65;101787.59;5044099;28;19929;-60
2022/11/28 06:25:29;;;;;;;;;;;;;;;5.11;76.74;101783.13;5047542;28;19928;-58
2022/11/28 06:27:54;;;;;;;;;;;;;;;5.14;76.54;101772.63;5048991;28;19920;-61
2022/11/28 06:30:22;;;;;;;;;;;;;;;5.19;76.27;101773.41;5045781;28;20428;-63
2022/11/28 06:32:47;;;;;;;;;;;;;;;5.19;76.64;101776.03;5039148;28;20291;-57
2022/11/28 06:35:12;;;;;;;;;;;;;;;5.21;76.54;101775.16;5047462;28;20313;-60
2022/11/28 06:37:37;;;;;;;;;;;;;;;5.25;76.51;101772.44;5040597;28;19929;-64
2022/11/28 06:40:03;;;;;;;;;;;;;;;5.28;76.47;101768.91;5040091;28;19921;-58
2022/11/28 06:42:29;;;;;;;;;;;;;;;5.31;76.21;101771.47;5045974;28;19924;-57
2022/11/28 06:44:54;;;;;;;;;;;;;;;5.31;76.50;101768.84;5047725;28;19932;-61
2022/11/28 06:47:19;;;;;;;;;;;;;;;5.31;76.05;101763.63;5041128;28;21439;-58
2022/11/28 06:49:46;;;;;;;;;;;;;;;5.31;76.43;101768.84;5041496;28;20369;-60
2022/11/28 06:52:12;;;;;;;;;;;;;;;5.34;76.18;101774.03;5049133;28;19920;-57
2022/11/28 06:54:37;;;;;;;;;;;;;;;5.39;75.97;101772.16;5049640;28;19943;-59
2022/11/28 06:57:02;;;;;;;;;;;;;;;5.38;76.03;101767.81;5047845;28;19925;-59
2022/11/28 06:59:28;;;;;;;;;;;;;;;5.35;76.19;101767.91;5050042;28;19952;-61
2022/11/28 07:01:56;;;;;;;;;;;;;;;5.37;76.06;101763.50;5040574;28;19967;-62
2022/11/28 07:04:21;;;;;;;;;;;;;;;5.36;76.04;101766.16;5037552;28;19921;-62
2022/11/28 07:06:47;;;;;;;;;;;;;;;5.35;75.89;101760.09;5050845;28;19925;-57
2022/11/28 07:09:12;;;;;;;;;;;;;;;5.36;76.20;101755.69;5049636;28;19928;-59
2022/11/28 07:11:40;;;;;;;;;;;;;;;5.37;75.88;101753.06;5047732;28;19995;-60
2022/11/28 07:14:05;;;;;;;;;;;;;;;5.37;76.06;101755.66;5054560;28;20400;-61
2022/11/28 07:16:31;;;;;;;;;;;;;;;5.39;75.85;101740.84;5046993;28;19921;-58
2022/11/28 07:18:57;;;;;;;;;;;;;;;5.39;76.08;101745.22;5039195;28;19924;-61
2022/11/28 07:21:22;;;;;;;;;;;;;;;5.34;75.93;101747.91;5043760;28;19927;-60
2022/11/28 07:23:48;;;;;;;;;;;;;;;5.43;76.24;101747.72;5055545;22;19970;-60
2022/11/28 07:26:16;;;;;;;;;;;;;;;5.46;75.90;101738.97;5020206;28;19950;-61
2022/11/28 07:28:42;;;;;;;;;;;;;;;5.51;75.84;101733.66;5023046;28;20384;-60
2022/11/28 07:31:11;;;;;;;;;;;;;;;5.49;75.63;101724.13;5029407;28;20104;-60
2022/11/28 07:33:38;;;;;;;;;;;;;;;5.57;75.51;101717.84;5026161;28;19917;-62
2022/11/28 07:36:05;;;;;;;;;;;;;;;5.61;75.41;101724.75;5035248;28;19933;-60
2022/11/28 07:38:30;;;;;;;;;;;;;;;5.59;75.66;101718.69;5032401;28;19945;-61
2022/11/28 07:41:01;;;;;;;;;;;;;;;5.59;75.76;101710.84;5031992;28;20399;-59
2022/11/28 07:43:26;;;;;;;;;;;;;;;5.60;75.67;101707.34;5023069;28;19925;-60
2022/11/28 07:45:51;;;;;;;;;;;;;;;5.61;75.38;101701.25;5029547;28;19921;-59
2022/11/28 07:48:17;;;;;;;;;;;;;;;5.64;75.36;101709.03;5024498;28;20388;-61
2022/11/28 07:50:42;;;;;;;;;;;;;;;5.68;74.87;101715.03;5025603;28;19925;-60
2022/11/28 07:53:07;;;;;;;;;;;;;;;5.70;74.98;101724.53;5022143;28;19929;-62
2022/11/28 07:55:33;;;;;;;;;;;;;;;5.74;74.98;101728.81;5033628;28;20038;-61
2022/11/28 07:57:59;;;;;;;;;;;;;;;5.74;75.07;101722.75;5022655;28;19917;-62
2022/11/28 08:00:24;;;;;;;;;;;;;;;5.75;74.92;101716.59;5024702;28;19925;-60
2022/11/28 08:02:49;;;;;;;;;;;;;;;5.77;74.93;101713.06;5026181;28;19948;-63
2022/11/28 08:05:14;;;;;;;;;;;;;;;5.73;74.22;101711.41;5030453;28;19972;-59
2022/11/28 08:07:40;;;;;;;;;;;;;;;5.74;74.59;101717.53;5030502;28;20003;-60
2022/11/28 08:10:05;;;;;;;;;;;;;;;5.73;74.19;101734.06;5030959;28;19953;-62
2022/11/28 08:12:31;;;;;;;;;;;;;;;5.72;74.01;101716.69;5030180;28;19922;-58
2022/11/28 08:14:56;;;;;;;;;;;;;;;5.73;73.99;101718.41;5030071;28;19921;-59
2022/11/28 08:17:21;;;;;;;;;;;;;;;5.71;73.89;101720.19;5029049;28;19980;-58
2022/11/28 08:19:46;;;;;;;;;;;;;;;5.74;73.96;101733.19;5026991;28;19925;-58
2022/11/28 08:22:12;;;;;;;;;;;;;;;5.71;73.95;101734.09;5027153;28;19921;-62
2022/11/28 08:24:37;;;;;;;;;;;;;;;5.68;74.22;101733.31;5028805;28;19921;-63
2022/11/28 08:27:02;;;;;;;;;;;;;;;5.70;73.94;101724.53;5025792;28;19928;-61
2022/11/28 08:29:28;;;;;;;;;;;;;;;5.68;73.81;101720.25;5014585;28;20039;-58
2022/11/28 08:31:53;;;;;;;;;;;;;;;5.66;73.96;101728.13;5029483;28;19929;-61
2022/11/28 08:34:18;;;;;;;;;;;;;;;5.70;73.80;101727.16;5032320;28;19921;-61
2022/11/28 08:36:46;;;;;;;;;;;;;;;5.72;73.60;101722.75;5011249;28;19927;-62
2022/11/28 08:39:11;;;;;;;;;;;;;;;5.73;73.49;101713.19;5026755;28;19921;-58
2022/11/28 08:41:37;;;;;;;;;;;;;;;5.74;73.30;101715.75;5023684;28;19947;-63
2022/11/28 08:44:02;;;;;;;;;;;;;;;5.79;73.26;101724.34;5034462;28;19936;-58
2022/11/28 08:46:28;;;;;;;;;;;;;;;5.77;73.01;101717.44;5037849;28;19956;-60
2022/11/28 08:48:53;;;;;;;;;;;;;;;5.76;72.95;101713.97;5028661;28;19929;-58
2022/11/28 08:51:19;;;;;;;;;;;;;;;5.73;73.06;101710.56;5031942;28;19921;-60
2022/11/28 08:53:45;;;;;;;;;;;;;;;5.75;72.99;101714.84;5022589;28;19917;-58
2022/11/28 08:56:10;;;;;;;;;;;;;;;5.72;72.66;101717.53;5023847;28;20543;-58
2022/11/28 08:58:36;;;;;;;;;;;;;;;5.72;72.60;101720.16;5025923;28;20295;-60
2022/11/28 09:01:01;;;;;;;;;;;;;;;5.73;72.82;101718.41;5033678;28;19939;-58
2022/11/28 09:03:26;;;;;;;;;;;;;;;5.74;72.52;101722.75;5033660;28;20590;-59
2022/11/28 09:05:52;;;;;;;;;;;;;;;5.73;72.90;101719.25;5037287;28;20452;-63
2022/11/28 09:08:18;;;;;;;;;;;;;;;5.73;72.42;101728.84;5032083;28;19913;-58
2022/11/28 09:10:44;;;;;;;;;;;;;;;5.70;72.38;101724.53;5028421;28;20367;-60
2022/11/28 09:13:09;;;;;;;;;;;;;;;5.73;72.35;101719.25;5020445;28;20008;-58
2022/11/28 09:15:38;;;;;;;;;;;;;;;5.76;72.51;101727.03;5021547;28;20351;-61
2022/11/28 09:18:03;;;;;;;;;;;;;;;5.77;72.31;101722.66;5026292;28;20147;-59
2022/11/28 09:20:29;;;;;;;;;;;;;;;5.80;72.44;101726.06;5028597;28;19962;-61
2022/11/28 09:22:54;;;;;;;;;;;;;;;5.87;72.78;101721.56;5027900;28;19936;-62
2022/11/28 09:25:19;;;;;;;;;;;;;;;5.93;72.29;101728.41;5026462;28;19928;-61
2022/11/28 09:27:45;;;;;;;;;;;;;;;6.01;72.15;101728.28;5024752;28;19918;-60
2022/11/28 09:30:10;;;;;;;;;;;;;;;6.07;71.69;101728.09;5022832;28;20403;-60
2022/11/28 09:32:35;;;;;;;;;;;;;;;6.14;71.74;101718.38;5032185;28;19917;-58
2022/11/28 09:35:01;;;;;;;;;;;;;;;6.19;71.53;101720.00;5026969;28;20443;-59
2022/11/28 09:37:27;;;;;;;;;;;;;;;6.24;71.43;101714.66;5027685;28;19925;-59
2022/11/28 09:39:52;;;;;;;;;;;;;;;6.31;70.72;101712.75;5026391;28;19924;-58
2022/11/28 09:42:17;;;;;;;;;;;;;;;6.37;70.70;101715.22;5028970;28;20385;-60
2022/11/28 09:44:42;;;;;;;;;;;;;;;6.42;70.73;101710.75;5024680;28;19921;-58
2022/11/28 09:47:13;;;;;;;;;;;;;;;6.46;70.00;101703.66;5029707;28;19960;-61
2022/11/28 09:49:43;;;;;;;;;;;;;;;6.50;70.02;101698.34;5022099;28;20376;-58
2022/11/28 09:52:15;;;;;;;;;;;;;;;6.58;70.19;101692.03;5032496;28;19967;-59
2022/11/28 09:54:48;;;;;;;;;;;;;;;6.65;69.73;101694.47;5027709;28;19913;-58
2022/11/28 09:57:20;;;;;;;;;;;;;;;6.67;69.22;101691.78;5020686;28;19924;-61
2022/11/28 09:59:45;;;;;;;;;;;;;;;6.68;69.32;101694.38;5025750;28;20300;-61
2022/11/28 10:02:23;;;;;;;;;;;;;;;6.69;69.31;101690.00;5031813;28;20404;-58
2022/11/28 10:05:15;;;;;;;;;;;;;;;6.73;68.83;101675.94;5026124;28;20296;-59
2022/11/28 10:07:52;;;;;;;;;;;;;;;6.71;68.54;101681.25;5023213;28;19921;-61
2022/11/28 10:10:36;;;;;;;;;;;;;;;6.75;68.70;101674.16;5025347;28;19925;-59
2022/11/28 10:13:07;;;;;;;;;;;;;;;6.77;68.33;101674.09;5026038;28;19928;-63
2022/11/28 10:15:38;;;;;;;;;;;;;;;6.82;68.39;101674.84;5032492;28;19932;-61
2022/11/28 10:18:04;;;;;;;;;;;;;;;6.82;68.40;101675.69;5029169;28;19924;-60
2022/11/28 10:20:32;;;;;;;;;;;;;;;6.84;68.61;101673.91;5039412;28;20398;-60
2022/11/28 10:23:06;;;;;;;;;;;;;;;6.84;67.80;101662.59;5028947;28;20439;-59
2022/11/28 10:25:45;;;;;;;;;;;;;;;6.88;67.58;101669.47;5021107;28;19972;-61
2022/11/28 10:28:21;;;;;;;;;;;;;;;6.91;67.65;101668.50;5026613;28;19916;-59
2022/11/28 10:30:50;;;;;;;;;;;;;;;6.93;67.52;101672.78;5032096;28;19928;-61
2022/11/28 10:33:20;;;;;;;;;;;;;;;6.92;67.70;101665.00;5026128;28;19999;-61
2022/11/28 10:35:47;;;;;;;;;;;;;;;6.94;67.26;101665.81;5021551;28;19924;-59
2022/11/28 10:38:14;;;;;;;;;;;;;;;7.01;67.49;101664.72;5021877;28;19959;-59
2022/11/28 10:40:49;;;;;;;;;;;;;;;7.05;67.21;101668.13;5026752;28;19917;-62
2022/11/28 10:43:33;;;;;;;;;;;;;;;7.09;67.09;101657.53;5023786;28;19972;-60
2022/11/28 10:45:58;;;;;;;;;;;;;;;7.16;66.58;101652.97;5029402;28;20439;-62
2022/11/28 10:48:32;;;;;;;;;;;;;;;7.16;66.24;101645.13;5029699;28;20020;-60
2022/11/28 10:51:05;;;;;;;;;;;;;;;7.14;66.17;101639.06;5027165;28;20372;-62
2022/11/28 10:53:46;;;;;;;;;;;;;;;7.10;66.03;101626.97;5031908;28;19913;-58
2022/11/28 10:56:17;;;;;;;;;;;;;;;7.16;66.57;101629.44;5028768;28;19917;-61
2022/11/28 10:58:53;;;;;;;;;;;;;;;7.17;66.11;101629.38;5027386;28;19917;-61
2022/11/28 11:01:19;;;;;;;;;;;;;;;7.18;66.07;101627.63;5028758;28;19938;-59
2022/11/28 11:03:44;;;;;;;;;;;;;;;7.24;66.55;101622.19;5023739;28;19924;-61
2022/11/28 11:06:09;;;;;;;;;;;;;;;7.21;66.13;101622.28;5035576;28;19986;-59
2022/11/28 11:08:36;;;;;;;;;;;;;;;7.21;66.07;101624.91;5032036;28;19936;-62
2022/11/28 11:11:01;;;;;;;;;;;;;;;7.22;66.01;101620.53;5034053;28;19917;-59
2022/11/28 11:13:28;;;;;;;;;;;;;;;7.26;65.78;101622.16;5040816;28;19932;-63
2022/11/28 11:16:03;;;;;;;;;;;;;;;7.29;65.90;101619.44;5024237;28;19961;-60
2022/11/28 11:18:28;;;;;;;;;;;;;;;7.29;65.92;101620.31;5036548;28;19925;-61
2022/11/28 11:21:07;;;;;;;;;;;;;;;7.26;65.83;101622.16;5031183;28;19921;-60
2022/11/28 11:23:33;;;;;;;;;;;;;;;7.28;65.89;101621.22;5034169;28;20458;-60
2022/11/28 11:25:58;;;;;;;;;;;;;;;7.31;65.84;101620.25;5038280;28;19920;-59
2022/11/28 11:28:44;;;;;;;;;;;;;;;7.32;66.29;101607.13;5025695;28;20295;-64
2022/11/28 11:31:22;;;;;;;;;;;;;;;7.37;66.24;101613.97;5030050;28;20386;-62
2022/11/28 11:33:48;;;;;;;;;;;;;;;7.38;66.31;101610.44;5037006;28;20402;-62
2022/11/28 11:36:25;;;;;;;;;;;;;;;7.39;66.24;101612.16;5027040;28;20168;-65
2022/11/28 11:38:51;;;;;;;;;;;;;;;7.44;65.89;101607.66;5031332;28;19917;-58
2022/11/28 11:41:20;;;;;;;;;;;;;;;7.46;65.69;101611.09;5033518;28;19913;-59
2022/11/28 11:43:45;;;;;;;;;;;;;;;7.50;65.84;101610.06;5030575;28;19917;-59
2022/11/28 11:46:11;;;;;;;;;;;;;;;7.55;65.54;101602.09;5027827;28;19920;-61
2022/11/28 11:48:41;;;;;;;;;;;;;;;7.58;65.56;101607.19;5027935;28;19957;-58
2022/11/28 11:51:20;;;;;;;;;;;;;;;7.59;65.06;101609.78;5024389;28;19930;-59
2022/11/28 11:53:45;;;;;;;;;;;;;;;7.62;64.77;101599.22;5025625;28;20377;-59
2022/11/28 11:56:11;;;;;;;;;;;;;;;7.69;64.58;101606.88;5033228;28;19924;-59
2022/11/28 11:58:40;;;;;;;;;;;;;;;7.74;64.50;101603.19;5024924;28;19969;-62
2022/11/28 12:01:06;;;;;;;;;;;;;;;7.77;64.61;101602.25;5031548;28;20352;-58
2022/11/28 12:03:36;;;;;;;;;;;;;;;7.77;63.80;101597.03;5026644;28;20369;-58
2022/11/28 12:06:23;;;;;;;;;;;;;;;7.79;64.13;101605.66;5042741;28;19983;-61
2022/11/28 12:08:53;;;;;;;;;;;;;;;7.81;64.06;101598.63;5027115;28;19913;-60
2022/11/28 12:11:28;;;;;;;;;;;;;;;7.77;63.86;101597.88;5022445;28;20386;-62
2022/11/28 12:13:54;;;;;;;;;;;;;;;7.80;63.86;101599.53;5028342;28;19917;-60
2022/11/28 12:16:28;;;;;;;;;;;;;;;7.83;64.26;101591.56;5036379;28;19920;-59
2022/11/28 12:19:16;;;;;;;;;;;;;;;7.85;63.72;101592.38;5026524;28;20000;-62
2022/11/28 12:21:41;;;;;;;;;;;;;;;7.89;63.67;101586.13;5028276;28;20015;-59
2022/11/28 12:24:11;;;;;;;;;;;;;;;7.83;62.99;101591.56;5024002;28;19992;-62
2022/11/28 12:26:40;;;;;;;;;;;;;;;7.68;63.09;101585.06;5025312;28;19918;-59
2022/11/28 12:29:24;;;;;;;;;;;;;;;7.69;63.63;101589.41;5030590;28;20280;-60
2022/11/28 12:31:50;;;;;;;;;;;;;;;7.69;63.71;101593.78;5024326;28;19913;-63
2022/11/28 12:34:18;;;;;;;;;;;;;;;7.67;63.43;101587.72;5027115;28;19932;-62
2022/11/28 12:37:02;;;;;;;;;;;;;;;7.69;63.59;101594.66;5027723;28;19917;-63
2022/11/28 12:39:34;;;;;;;;;;;;;;;7.65;63.39;101593.03;5031065;28;19913;-59
2022/11/28 12:42:18;;;;;;;;;;;;;;;7.63;63.31;101590.47;5032189;28;19956;-63
2022/11/28 12:44:53;;;;;;;;;;;;;;;7.54;63.57;101582.88;5014607;28;19917;-62
2022/11/28 12:47:18;;;;;;;;;;;;;;;7.46;63.52;101582.28;5021789;28;19932;-59
2022/11/28 12:50:01;;;;;;;;;;;;;;;7.42;63.37;101588.50;5014829;28;19925;-60
2022/11/28 12:52:30;;;;;;;;;;;;;;;7.38;63.51;101589.50;5023631;28;19964;-59
2022/11/28 12:54:58;;;;;;;;;;;;;;;7.30;63.97;101587.09;5021280;28;20078;-60
2022/11/28 12:57:36;;;;;;;;;;;;;;;7.24;63.77;101590.78;5020888;28;19936;-61